createdAt,value
2023-05-13T00:02:00.061Z,101888.38
2023-05-13T00:04:26.985Z,101890.97
2023-05-13T00:06:53.898Z,101891.81
2023-05-13T00:09:20.766Z,101890.97
2023-05-13T00:11:47.636Z,101886.94
2023-05-13T00:14:14.694Z,101878.81
2023-05-13T00:16:42.058Z,101881.53
2023-05-13T00:19:09.441Z,101877.09
2023-05-13T00:21:36.415Z,101876.84
2023-05-13T00:24:03.441Z,101876.84
2023-05-13T00:26:30.315Z,101870.41
2023-05-13T00:28:57.202Z,101872.28
2023-05-13T00:31:24.453Z,101870.72
2023-05-13T00:33:51.389Z,101868.72
2023-05-13T00:36:18.322Z,101865.00
2023-05-13T00:38:45.313Z,101863.56
2023-05-13T00:41:13.013Z,101865.16
2023-05-13T00:43:39.878Z,101860.28
2023-05-13T00:46:07.234Z,101862.75
2023-05-13T00:48:34.666Z,101862.47
2023-05-13T00:51:01.550Z,101861.59
2023-05-13T00:53:28.567Z,101859.19
2023-05-13T00:55:55.988Z,101860.75
2023-05-13T00:58:22.912Z,101857.31
2023-05-13T01:01:05.579Z,101855.88
2023-05-13T01:04:00.084Z,101858.59
2023-05-13T01:06:56.020Z,101860.13
2023-05-13T01:09:31.770Z,101854.97
2023-05-13T01:12:08.584Z,101856.72
2023-05-13T01:14:45.286Z,101856.97
2023-05-13T01:17:19.170Z,101845.84
2023-05-13T01:19:53.056Z,101854.69
2023-05-13T01:22:19.965Z,101858.66
2023-05-13T01:24:47.012Z,101861.50
2023-05-13T01:27:14.664Z,101860.66
2023-05-13T01:29:41.643Z,101862.78
2023-05-13T01:32:10.670Z,101864.34
2023-05-13T01:34:39.884Z,101864.22
2023-05-13T01:37:06.950Z,101857.78
2023-05-13T01:39:37.813Z,101853.13
2023-05-13T01:42:05.013Z,101864.94
2023-05-13T01:44:32.032Z,101862.22
2023-05-13T01:46:58.968Z,101862.94
2023-05-13T01:49:26.282Z,101872.50
2023-05-13T01:51:53.242Z,101873.22
2023-05-13T01:54:20.207Z,101869.28
2023-05-13T01:56:47.097Z,101877.66
2023-05-13T01:59:14.034Z,101868.53
2023-05-13T02:01:41.375Z,101871.09
2023-05-13T02:04:08.456Z,101867.53
2023-05-13T02:06:35.517Z,101860.13
2023-05-13T02:09:02.453Z,101866.69
2023-05-13T02:11:29.397Z,101872.09
2023-05-13T02:13:56.452Z,101864.97
2023-05-13T02:16:23.504Z,101876.50
2023-05-13T02:18:50.575Z,101863.09
2023-05-13T02:21:17.633Z,101865.81
2023-05-13T02:23:44.713Z,101863.84
2023-05-13T02:26:11.597Z,101859.56
2023-05-13T02:28:38.598Z,101874.94
2023-05-13T02:31:05.640Z,101872.38
2023-05-13T02:33:32.621Z,101873.22
2023-05-13T02:35:59.535Z,101872.63
2023-05-13T02:38:26.443Z,101867.22
2023-05-13T02:40:53.336Z,101878.94
2023-05-13T02:43:20.716Z,101880.63
2023-05-13T02:45:48.298Z,101873.50
2023-05-13T02:48:16.147Z,101874.63
2023-05-13T02:50:43.108Z,101874.91
2023-05-13T02:53:10.007Z,101865.53
2023-05-13T02:55:37.263Z,101871.66
2023-05-13T02:58:04.874Z,101867.50
2023-05-13T03:00:31.860Z,101859.53
2023-05-13T03:02:59.140Z,101865.66
2023-05-13T03:05:27.839Z,101863.78
2023-05-13T03:07:58.064Z,101852.97
2023-05-13T03:10:25.130Z,101863.06
2023-05-13T03:12:52.100Z,101859.97
2023-05-13T03:15:19.077Z,101862.69
2023-05-13T03:17:46.105Z,101851.84
2023-05-13T03:20:13.523Z,101839.59
2023-05-13T03:22:40.805Z,101848.44
2023-05-13T03:25:08.685Z,101841.88
2023-05-13T03:27:36.007Z,101849.41
2023-05-13T03:30:03.070Z,101838.72
2023-05-13T03:32:31.762Z,101838.13
2023-05-13T03:35:01.048Z,101841.53
2023-05-13T03:37:28.033Z,101839.69
2023-05-13T03:39:54.974Z,101831.56
2023-05-13T03:42:23.555Z,101826.88
2023-05-13T03:44:51.429Z,101824.00
2023-05-13T03:47:18.409Z,101816.78
2023-05-13T03:49:45.533Z,101819.88
2023-05-13T03:52:12.423Z,101821.13
2023-05-13T03:54:39.514Z,101819.16
2023-05-13T03:57:08.494Z,101813.88
2023-05-13T03:59:35.391Z,101816.75
2023-05-13T04:02:02.338Z,101816.56
2023-05-13T04:04:29.311Z,101819.13
2023-05-13T04:06:56.295Z,101826.25
2023-05-13T04:09:23.283Z,101820.84
2023-05-13T04:11:50.292Z,101823.38
2023-05-13T04:14:17.203Z,101825.53
2023-05-13T04:16:44.129Z,101824.41
2023-05-13T04:19:11.906Z,101835.94
2023-05-13T04:21:38.904Z,101834.50
2023-05-13T04:24:06.593Z,101831.78
2023-05-13T04:26:33.677Z,101835.22
2023-05-13T04:29:00.672Z,101829.94
2023-05-13T04:31:27.652Z,101828.09
2023-05-13T04:33:54.589Z,101828.09
2023-05-13T04:36:21.493Z,101841.47
2023-05-13T04:38:48.448Z,101835.50
2023-05-13T04:41:15.357Z,101836.78
2023-05-13T04:43:42.280Z,101837.50
2023-05-13T04:46:09.335Z,101843.63
2023-05-13T04:48:36.384Z,101853.75
2023-05-13T04:51:04.018Z,101871.13
2023-05-13T04:53:31.373Z,101864.31
2023-05-13T04:56:01.139Z,101867.16
2023-05-13T04:58:28.889Z,101863.00
2023-05-13T05:00:55.870Z,101863.13
2023-05-13T05:03:22.857Z,101877.38
2023-05-13T05:05:49.976Z,101866.84
2023-05-13T05:08:17.321Z,101873.94
2023-05-13T05:10:44.270Z,101869.81
2023-05-13T05:13:11.385Z,101861.69
2023-05-13T05:15:38.311Z,101868.25
2023-05-13T05:18:06.897Z,101869.34
2023-05-13T05:20:33.958Z,101874.38
2023-05-13T05:23:00.866Z,101877.66
2023-05-13T05:25:28.837Z,101877.78
2023-05-13T05:27:55.784Z,101880.88
2023-05-13T05:30:22.995Z,101878.47
2023-05-13T05:32:50.304Z,101885.44
2023-05-13T05:35:19.922Z,101886.16
2023-05-13T05:37:46.941Z,101887.56
2023-05-13T05:40:14.344Z,101883.34
2023-05-13T05:42:41.291Z,101895.88
2023-05-13T05:45:09.021Z,101892.91
2023-05-13T05:47:35.992Z,101888.50
2023-05-13T05:50:02.957Z,101894.16
2023-05-13T05:52:29.856Z,101892.19
2023-05-13T05:54:56.836Z,101898.44
2023-05-13T05:57:23.807Z,101901.56
2023-05-13T05:59:51.557Z,101900.84
2023-05-13T06:02:18.559Z,101905.84
2023-05-13T06:04:45.500Z,101892.97
2023-05-13T06:07:12.484Z,101900.84
2023-05-13T06:09:39.469Z,101907.09
2023-05-13T06:12:06.902Z,101914.38
2023-05-13T06:14:33.775Z,101908.09
2023-05-13T06:17:00.884Z,101908.22
2023-05-13T06:19:27.828Z,101910.34
2023-05-13T06:21:54.757Z,101919.72
2023-05-13T06:24:21.818Z,101918.84
2023-05-13T06:26:48.717Z,101918.72
2023-05-13T06:29:15.635Z,101924.00
2023-05-13T06:31:42.577Z,101924.53
2023-05-13T06:34:16.649Z,101928.56
2023-05-13T06:36:44.476Z,101926.44
2023-05-13T06:39:12.735Z,101931.56
2023-05-13T06:41:42.669Z,101927.69
2023-05-13T06:44:10.210Z,101927.16
2023-05-13T06:46:37.204Z,101931.94
2023-05-13T06:49:04.121Z,101931.63
2023-05-13T06:51:33.047Z,101934.81
2023-05-13T06:54:00.067Z,101929.28
2023-05-13T06:56:27.072Z,101925.19
2023-05-13T06:58:54.000Z,101930.31
2023-05-13T07:01:21.035Z,101926.63
2023-05-13T07:03:48.063Z,101919.56
2023-05-13T07:06:15.303Z,101931.25
2023-05-13T07:08:42.241Z,101924.38
2023-05-13T07:11:09.256Z,101926.28
2023-05-13T07:13:36.194Z,101925.28
2023-05-13T07:16:03.347Z,101922.19
2023-05-13T07:18:30.448Z,101931.16
2023-05-13T07:20:57.527Z,101926.47
2023-05-13T07:23:24.981Z,101932.88
2023-05-13T07:25:52.378Z,101925.94
2023-05-13T07:28:22.097Z,101924.94
2023-05-13T07:30:49.158Z,101918.97
2023-05-13T07:33:16.117Z,101915.44
2023-05-13T07:35:43.144Z,101913.72
2023-05-13T07:38:11.433Z,101911.47
2023-05-13T07:40:38.944Z,101921.03
2023-05-13T07:43:06.249Z,101920.66
2023-05-13T07:45:33.328Z,101911.25
2023-05-13T07:48:00.557Z,101914.66
2023-05-13T07:50:27.987Z,101912.66
2023-05-13T07:52:55.070Z,101910.41
2023-05-13T07:55:23.151Z,101914.34
2023-05-13T07:57:50.247Z,101919.25
2023-05-13T08:00:17.572Z,101923.25
2023-05-13T08:02:45.025Z,101910.56
2023-05-13T08:05:12.578Z,101917.41
2023-05-13T08:07:39.578Z,101920.56
2023-05-13T08:10:07.411Z,101914.31
2023-05-13T08:12:34.459Z,101906.03
2023-05-13T08:15:04.161Z,101905.34
2023-05-13T08:17:31.117Z,101902.09
2023-05-13T08:19:58.969Z,101907.81
2023-05-13T08:22:26.976Z,101905.97
2023-05-13T08:24:54.422Z,101901.53
2023-05-13T08:27:21.370Z,101905.25
2023-05-13T08:29:48.300Z,101910.97
2023-05-13T08:32:15.272Z,101907.97
2023-05-13T08:34:42.293Z,101904.56
2023-05-13T08:37:09.192Z,101911.53
2023-05-13T08:39:36.164Z,101911.69
2023-05-13T08:42:04.525Z,101909.13
2023-05-13T08:44:33.175Z,101908.81
2023-05-13T08:47:33.268Z,101908.84
2023-05-13T08:50:01.551Z,101913.38
2023-05-13T08:52:28.690Z,101908.38
2023-05-13T08:54:59.859Z,101915.94
2023-05-13T08:57:28.135Z,101916.09
2023-05-13T08:59:55.363Z,101920.50
2023-05-13T09:02:23.523Z,101912.63
2023-05-13T09:04:55.083Z,101917.31
2023-05-13T09:07:22.545Z,101915.28
2023-05-13T09:09:50.165Z,101915.72
2023-05-13T09:12:42.950Z,101913.97
2023-05-13T09:15:13.029Z,101913.63
2023-05-13T09:17:45.855Z,101906.91
2023-05-13T09:20:15.501Z,101908.03
2023-05-13T09:22:53.297Z,101916.59
2023-05-13T09:25:24.750Z,101914.19
2023-05-13T09:28:04.091Z,101910.84
2023-05-13T09:30:43.898Z,101911.97
2023-05-13T09:33:16.208Z,101911.66
2023-05-13T09:35:53.176Z,101914.63
2023-05-13T09:38:34.921Z,101913.41
2023-05-13T09:41:03.476Z,101912.72
2023-05-13T09:43:34.225Z,101911.38
2023-05-13T09:46:05.956Z,101918.25
2023-05-13T09:48:34.442Z,101911.91
2023-05-13T09:51:01.741Z,101911.53
2023-05-13T09:53:29.191Z,101918.91
2023-05-13T09:55:58.428Z,101905.66
2023-05-13T09:58:31.318Z,101898.75
2023-05-13T10:00:58.986Z,101897.03
2023-05-13T10:03:26.370Z,101897.03
2023-05-13T10:05:53.998Z,101890.97
2023-05-13T10:08:22.552Z,101893.16
2023-05-13T10:10:54.947Z,101898.84
2023-05-13T10:13:25.259Z,101894.69
2023-05-13T10:15:55.572Z,101887.56
2023-05-13T10:18:29.371Z,101886.97
2023-05-13T10:20:56.918Z,101888.28
2023-05-13T10:23:24.787Z,101897.19
2023-05-13T10:25:54.510Z,101882.44
2023-05-13T10:28:21.803Z,101888.28
2023-05-13T10:30:52.344Z,101879.09
2023-05-13T10:33:30.816Z,101879.13
2023-05-13T10:36:34.266Z,101869.59
2023-05-13T10:39:52.448Z,101874.69
2023-05-13T10:42:43.528Z,101866.81
2023-05-13T10:45:11.482Z,101858.66
2023-05-13T10:47:39.130Z,101860.53
2023-05-13T10:50:23.520Z,101859.69
2023-05-13T10:52:51.475Z,101861.41
2023-05-13T10:55:20.878Z,101851.19
2023-05-13T10:58:12.430Z,101860.72
2023-05-13T11:00:43.177Z,101859.75
2023-05-13T11:03:10.283Z,101850.72
2023-05-13T11:05:59.541Z,101846.63
2023-05-13T11:08:47.502Z,101853.44
2023-05-13T11:11:35.132Z,101839.28
2023-05-13T11:14:21.028Z,101841.00
2023-05-13T11:16:54.880Z,101849.34
2023-05-13T11:19:25.584Z,101834.34
2023-05-13T11:21:58.638Z,101840.63
2023-05-13T11:24:26.782Z,101837.03
2023-05-13T11:26:57.008Z,101836.56
2023-05-13T11:29:37.627Z,101842.50
2023-05-13T11:32:07.092Z,101832.41
2023-05-13T11:34:34.738Z,101830.34
2023-05-13T11:37:04.675Z,101832.38
2023-05-13T11:39:33.744Z,101837.13
2023-05-13T11:42:05.381Z,101835.41
2023-05-13T11:44:34.832Z,101830.09
2023-05-13T11:47:08.832Z,101812.81
2023-05-13T11:49:44.834Z,101812.75
2023-05-13T11:52:20.421Z,101813.66
2023-05-13T11:54:54.348Z,101799.44
2023-05-13T11:57:26.301Z,101806.56
2023-05-13T11:59:56.925Z,101809.50
2023-05-13T12:02:30.402Z,101804.53
2023-05-13T12:05:04.555Z,101796.84
2023-05-13T12:07:32.957Z,101796.66
2023-05-13T12:10:02.440Z,101800.34
2023-05-13T12:12:31.759Z,101798.81
2023-05-13T12:15:08.653Z,101806.47
2023-05-13T12:17:36.014Z,101795.75
2023-05-13T12:20:17.870Z,101795.16
2023-05-13T12:22:44.762Z,101793.53
2023-05-13T12:25:39.744Z,101799.81
2023-05-13T12:28:18.854Z,101786.91
2023-05-13T12:30:56.759Z,101786.06
2023-05-13T12:33:41.476Z,101785.22
2023-05-13T12:36:36.437Z,101778.00
2023-05-13T12:39:09.893Z,101776.72
2023-05-13T12:41:40.079Z,101764.34
2023-05-13T12:44:16.481Z,101769.13
2023-05-13T12:47:01.563Z,101765.06
2023-05-13T12:49:28.656Z,101751.50
2023-05-13T12:51:57.031Z,101758.66
2023-05-13T12:54:23.968Z,101760.28
2023-05-13T12:56:51.022Z,101748.22
2023-05-13T12:59:19.393Z,101757.19
2023-05-13T13:01:48.415Z,101752.22
2023-05-13T13:04:17.098Z,101758.34
2023-05-13T13:06:44.310Z,101755.72
2023-05-13T13:09:11.328Z,101747.81
2023-05-13T13:11:39.457Z,101742.34
2023-05-13T13:14:06.468Z,101738.81
2023-05-13T13:16:33.533Z,101732.25
2023-05-13T13:19:01.933Z,101742.16
2023-05-13T13:21:29.202Z,101731.84
2023-05-13T13:23:56.137Z,101734.06
2023-05-13T13:26:25.694Z,101726.03
2023-05-13T13:28:53.026Z,101722.34
2023-05-13T13:31:20.337Z,101714.13
2023-05-13T13:33:47.247Z,101711.72
2023-05-13T13:36:14.183Z,101712.84
2023-05-13T13:38:41.156Z,101704.78
2023-05-13T13:41:08.110Z,101713.69
2023-05-13T13:43:35.047Z,101703.66
2023-05-13T13:46:02.014Z,101696.59
2023-05-13T13:48:29.039Z,101691.75
2023-05-13T13:50:56.168Z,101699.47
2023-05-13T13:53:23.114Z,101698.56
2023-05-13T13:55:50.126Z,101697.78
2023-05-13T13:58:17.098Z,101688.75
2023-05-13T14:00:44.078Z,101686.50
2023-05-13T14:03:11.066Z,101688.88
2023-05-13T14:05:38.122Z,101683.56
2023-05-13T14:08:05.388Z,101680.44
2023-05-13T14:10:32.389Z,101684.28
2023-05-13T14:12:59.424Z,101682.81
2023-05-13T14:15:28.991Z,101673.97
2023-05-13T14:17:56.265Z,101672.53
2023-05-13T14:20:25.211Z,101663.44
2023-05-13T14:22:52.195Z,101655.03
2023-05-13T14:25:19.192Z,101662.91
2023-05-13T14:27:46.084Z,101654.81
2023-05-13T14:30:13.478Z,101656.66
2023-05-13T14:32:45.345Z,101655.47
2023-05-13T14:35:13.389Z,101646.78
2023-05-13T14:37:41.160Z,101640.69
2023-05-13T14:40:09.778Z,101633.09
2023-05-13T14:42:36.845Z,101623.81
2023-05-13T14:45:04.341Z,101629.34
2023-05-13T14:47:31.274Z,101619.81
2023-05-13T14:49:58.604Z,101629.78
2023-05-13T14:52:25.782Z,101621.72
2023-05-13T14:54:52.717Z,101620.91
2023-05-13T14:57:19.748Z,101608.28
2023-05-13T14:59:46.782Z,101608.34
2023-05-13T15:02:17.562Z,101604.94
2023-05-13T15:04:44.895Z,101605.72
2023-05-13T15:07:11.842Z,101595.38
2023-05-13T15:09:38.782Z,101595.38
2023-05-13T15:12:06.968Z,101600.69
2023-05-13T15:14:33.923Z,101592.69
2023-05-13T15:17:00.920Z,101596.53
2023-05-13T15:19:28.098Z,101591.44
2023-05-13T15:21:55.007Z,101586.63
2023-05-13T15:24:21.924Z,101585.38
2023-05-13T15:26:50.852Z,101583.50
2023-05-13T15:29:17.917Z,101575.84
2023-05-13T15:31:44.862Z,101575.84
2023-05-13T15:34:11.790Z,101575.41
2023-05-13T15:36:38.696Z,101572.47
2023-05-13T15:39:05.656Z,101580.69
2023-05-13T15:41:32.662Z,101571.63
2023-05-13T15:43:59.551Z,101572.84
2023-05-13T15:46:26.713Z,101568.06
2023-05-13T15:48:53.692Z,101571.63
2023-05-13T15:51:21.013Z,101568.06
2023-05-13T15:53:47.918Z,101566.56
2023-05-13T15:56:14.959Z,101565.75
2023-05-13T15:58:42.045Z,101571.63
2023-05-13T16:01:08.989Z,101570.97
2023-05-13T16:03:38.882Z,101567.38
2023-05-13T16:06:06.185Z,101561.88
2023-05-13T16:08:33.173Z,101554.47
2023-05-13T16:11:00.262Z,101563.09
2023-05-13T16:13:27.225Z,101555.91
2023-05-13T16:15:54.525Z,101558.47
2023-05-13T16:18:21.776Z,101555.09
2023-05-13T16:20:48.713Z,101567.78
2023-05-13T16:23:15.907Z,101559.13
2023-05-13T16:25:43.429Z,101566.31
2023-05-13T16:28:11.165Z,101556.81
2023-05-13T16:30:38.861Z,101561.88
2023-05-13T16:33:05.908Z,101561.22
2023-05-13T16:35:32.941Z,101562.75
2023-05-13T16:37:59.842Z,101559.34
2023-05-13T16:40:26.769Z,101553.00
2023-05-13T16:42:54.724Z,101554.72
2023-05-13T16:45:23.500Z,101546.03
2023-05-13T16:47:50.631Z,101545.97
2023-05-13T16:50:17.589Z,101542.41
2023-05-13T16:52:44.570Z,101544.69
2023-05-13T16:55:13.658Z,101541.94
2023-05-13T16:57:40.826Z,101542.78
2023-05-13T17:00:08.649Z,101545.75
2023-05-13T17:02:35.798Z,101540.66
2023-05-13T17:05:02.829Z,101530.06
2023-05-13T17:07:29.891Z,101535.16
2023-05-13T17:09:56.963Z,101528.16
2023-05-13T17:12:23.956Z,101528.34
2023-05-13T17:14:50.869Z,101529.22
2023-05-13T17:17:17.788Z,101522.66
2023-05-13T17:19:44.794Z,101517.34
2023-05-13T17:22:11.785Z,101516.72
2023-05-13T17:24:40.079Z,101509.72
2023-05-13T17:27:08.362Z,101508.88
2023-05-13T17:29:35.304Z,101500.00
2023-05-13T17:32:02.410Z,101499.56
2023-05-13T17:34:29.342Z,101498.28
2023-05-13T17:36:56.344Z,101502.75
2023-05-13T17:39:23.328Z,101504.00
2023-05-13T17:41:50.247Z,101500.38
2023-05-13T17:44:17.465Z,101500.81
2023-05-13T17:46:44.433Z,101503.56
2023-05-13T17:49:11.552Z,101488.97
2023-05-13T17:51:38.734Z,101497.00
2023-05-13T17:54:05.748Z,101494.69
2023-05-13T17:56:32.683Z,101492.34
2023-05-13T17:58:59.608Z,101501.59
2023-05-13T18:01:26.624Z,101492.72
2023-05-13T18:03:53.621Z,101490.22
2023-05-13T18:06:20.632Z,101495.25
2023-05-13T18:08:47.609Z,101497.34
2023-05-13T18:11:14.513Z,101494.38
2023-05-13T18:13:41.422Z,101493.97
2023-05-13T18:16:09.471Z,101491.59
2023-05-13T18:18:37.118Z,101493.91
2023-05-13T18:21:04.340Z,101488.13
2023-05-13T18:23:32.930Z,101488.75
2023-05-13T18:26:00.141Z,101492.06
2023-05-13T18:28:27.073Z,101498.16
2023-05-13T18:30:54.035Z,101489.03
2023-05-13T18:33:21.946Z,101487.94
2023-05-13T18:35:49.271Z,101486.81
2023-05-13T18:38:16.427Z,101484.69
2023-05-13T18:40:43.351Z,101483.97
2023-05-13T18:43:10.301Z,101491.28
2023-05-13T18:45:37.290Z,101486.22
2023-05-13T18:48:04.805Z,101483.19
2023-05-13T18:50:32.018Z,101490.13
2023-05-13T18:52:58.949Z,101481.81
2023-05-13T18:55:25.858Z,101479.22
2023-05-13T18:57:52.825Z,101490.75
2023-05-13T19:00:20.226Z,101483.50
2023-05-13T19:02:47.329Z,101481.25
2023-05-13T19:05:14.575Z,101477.59
2023-05-13T19:07:41.639Z,101474.78
2023-05-13T19:10:08.731Z,101471.28
2023-05-13T19:12:35.754Z,101476.69
2023-05-13T19:15:02.889Z,101477.00
2023-05-13T19:17:31.345Z,101467.00
2023-05-13T19:20:00.632Z,101467.31
2023-05-13T19:22:27.675Z,101470.31
2023-05-13T19:24:54.651Z,101467.50
2023-05-13T19:27:22.349Z,101470.34
2023-05-13T19:29:49.680Z,101475.88
2023-05-13T19:32:16.885Z,101475.13
2023-05-13T19:34:43.849Z,101484.25
2023-05-13T19:37:10.920Z,101487.88
2023-05-13T19:39:37.854Z,101498.06
2023-05-13T19:42:04.992Z,101484.66
2023-05-13T19:44:32.230Z,101496.28
2023-05-13T19:46:59.323Z,101492.81
2023-05-13T19:49:26.473Z,101495.56
2023-05-13T19:51:53.785Z,101495.47
2023-05-13T19:54:20.889Z,101503.72
2023-05-13T19:56:47.898Z,101506.69
2023-05-13T19:59:14.915Z,101500.06
2023-05-13T20:01:42.292Z,101499.94
2023-05-13T20:04:09.762Z,101502.72
2023-05-13T20:06:37.062Z,101506.34
2023-05-13T20:09:04.227Z,101504.31
2023-05-13T20:11:31.707Z,101506.75
2023-05-13T20:13:59.547Z,101509.47
2023-05-13T20:16:26.806Z,101504.56
2023-05-13T20:18:53.773Z,101511.59
2023-05-13T20:21:20.843Z,101512.09
2023-05-13T20:23:47.768Z,101502.06
2023-05-13T20:26:14.746Z,101500.72
2023-05-13T20:28:41.697Z,101508.41
2023-05-13T20:31:08.696Z,101507.59
2023-05-13T20:33:35.834Z,101506.41
2023-05-13T20:36:02.850Z,101505.25
2023-05-13T20:38:29.735Z,101508.81
2023-05-13T20:40:56.663Z,101508.00
2023-05-13T20:43:23.711Z,101515.00
2023-05-13T20:45:50.747Z,101512.97
2023-05-13T20:48:17.697Z,101511.94
2023-05-13T20:50:44.613Z,101509.56
2023-05-13T20:53:11.572Z,101517.56
2023-05-13T20:55:38.473Z,101512.44
2023-05-13T20:58:05.450Z,101514.00
2023-05-13T21:00:32.362Z,101512.63
2023-05-13T21:03:00.075Z,101507.88
2023-05-13T21:05:27.229Z,101516.53
2023-05-13T21:07:54.288Z,101513.44
2023-05-13T21:10:21.805Z,101515.81
2023-05-13T21:12:49.024Z,101504.59
2023-05-13T21:15:16.910Z,101514.13
2023-05-13T21:17:44.027Z,101501.88
2023-05-13T21:20:12.077Z,101509.50
2023-05-13T21:22:39.231Z,101505.59
2023-05-13T21:25:07.300Z,101500.47
2023-05-13T21:27:34.258Z,101498.44
2023-05-13T21:30:01.277Z,101505.22
2023-05-13T21:32:28.302Z,101503.84
2023-05-13T21:34:56.544Z,101494.66
2023-05-13T21:37:25.052Z,101501.44
2023-05-13T21:39:52.034Z,101502.97
2023-05-13T21:42:19.003Z,101502.44
2023-05-13T21:44:46.239Z,101504.09
2023-05-13T21:47:13.260Z,101505.47
2023-05-13T21:49:40.291Z,101507.50
2023-05-13T21:52:07.390Z,101504.41
2023-05-13T21:54:34.307Z,101512.88
2023-05-13T21:57:01.665Z,101502.50
2023-05-13T21:59:28.603Z,101505.38
2023-05-13T22:01:55.604Z,101504.31
2023-05-13T22:04:25.636Z,101503.63
2023-05-13T22:06:53.370Z,101493.28
2023-05-13T22:09:20.431Z,101497.16
2023-05-13T22:11:47.304Z,101495.09
2023-05-13T22:14:14.426Z,101487.09
2023-05-13T22:16:41.520Z,101487.75
2023-05-13T22:19:08.691Z,101490.78
2023-05-13T22:21:36.267Z,101482.44
2023-05-13T22:24:05.267Z,101481.19
2023-05-13T22:26:33.357Z,101490.50
2023-05-13T22:29:00.302Z,101490.13
2023-05-13T22:31:27.348Z,101485.84
2023-05-13T22:33:54.427Z,101486.19
2023-05-13T22:36:21.504Z,101490.41
2023-05-13T22:38:48.459Z,101487.00
2023-05-13T22:41:15.441Z,101490.69
2023-05-13T22:43:42.328Z,101489.16
2023-05-13T22:46:09.243Z,101486.91
2023-05-13T22:48:36.223Z,101489.44
2023-05-13T22:51:03.233Z,101491.44
2023-05-13T22:53:30.167Z,101481.72
2023-05-13T22:55:57.428Z,101489.38
2023-05-13T22:58:24.327Z,101476.25
2023-05-13T23:00:51.229Z,101474.88
2023-05-13T23:03:18.160Z,101486.19
2023-05-13T23:05:45.072Z,101484.66
2023-05-13T23:08:12.702Z,101484.97
2023-05-13T23:10:39.632Z,101477.44
2023-05-13T23:13:06.574Z,101481.19
2023-05-13T23:15:33.617Z,101473.34
2023-05-13T23:18:00.747Z,101475.66
2023-05-13T23:20:27.705Z,101477.00
2023-05-13T23:22:55.729Z,101468.16
2023-05-13T23:25:22.732Z,101470.31
2023-05-13T23:27:51.533Z,101473.50
2023-05-13T23:30:18.668Z,101470.09
2023-05-13T23:32:46.511Z,101462.41
2023-05-13T23:35:13.464Z,101464.59
2023-05-13T23:37:40.639Z,101469.47
2023-05-13T23:40:08.372Z,101464.34
2023-05-13T23:42:35.305Z,101467.38
2023-05-13T23:45:02.353Z,101467.50
2023-05-13T23:47:30.130Z,101462.72
2023-05-13T23:49:58.334Z,101471.31
2023-05-13T23:52:25.304Z,101464.31
2023-05-13T23:54:52.249Z,101460.22
2023-05-13T23:57:19.467Z,101465.25
2023-05-13T23:59:46.407Z,101461.81
